sensor_id;sensor_type;location;lat;lon;timestamp;P1;durP1;ratioP1;P2;durP2;ratioP2
23712;SDS011;12035;49.978;8.298;2024-02-26T00:03:25;2.40;;;1.08;;
23712;SDS011;12035;49.978;8.298;2024-02-26T00:08:24;2.33;;;0.80;;
23712;SDS011;12035;49.978;8.298;2024-02-26T00:13:21;1.38;;;0.73;;
23712;SDS011;12035;49.978;8.298;2024-02-26T00:18:18;2.47;;;1.05;;
23712;SDS011;12035;49.978;8.298;2024-02-26T00:23:15;1.33;;;0.73;;
23712;SDS011;12035;49.978;8.298;2024-02-26T00:28:14;1.50;;;0.88;;
23712;SDS011;12035;49.978;8.298;2024-02-26T00:33:11;1.52;;;0.77;;
23712;SDS011;12035;49.978;8.298;2024-02-26T00:38:08;2.78;;;0.90;;
23712;SDS011;12035;49.978;8.298;2024-02-26T00:43:05;1.95;;;0.90;;
23712;SDS011;12035;49.978;8.298;2024-02-26T00:48:04;2.28;;;0.73;;
23712;SDS011;12035;49.978;8.298;2024-02-26T00:53:02;2.90;;;1.00;;
23712;SDS011;12035;49.978;8.298;2024-02-26T00:58:00;2.92;;;0.80;;
23712;SDS011;12035;49.978;8.298;2024-02-26T01:02:57;1.98;;;0.90;;
23712;SDS011;12035;49.978;8.298;2024-02-26T01:07:56;2.20;;;0.80;;
23712;SDS011;12035;49.978;8.298;2024-02-26T01:12:53;1.42;;;0.80;;
23712;SDS011;12035;49.978;8.298;2024-02-26T01:17:50;2.13;;;0.95;;
23712;SDS011;12035;49.978;8.298;2024-02-26T01:22:47;1.60;;;0.90;;
23712;SDS011;12035;49.978;8.298;2024-02-26T01:27:45;2.13;;;1.00;;
23712;SDS011;12035;49.978;8.298;2024-02-26T01:32:42;2.33;;;0.98;;
23712;SDS011;12035;49.978;8.298;2024-02-26T01:37:39;2.30;;;0.90;;
23712;SDS011;12035;49.978;8.298;2024-02-26T01:42:37;1.67;;;0.85;;
23712;SDS011;12035;49.978;8.298;2024-02-26T01:47:37;1.42;;;0.90;;
23712;SDS011;12035;49.978;8.298;2024-02-26T01:52:34;3.05;;;0.88;;
23712;SDS011;12035;49.978;8.298;2024-02-26T01:57:31;2.67;;;0.90;;
23712;SDS011;12035;49.978;8.298;2024-02-26T02:02:29;2.28;;;0.93;;
23712;SDS011;12035;49.978;8.298;2024-02-26T02:07:28;1.80;;;0.98;;
23712;SDS011;12035;49.978;8.298;2024-02-26T02:12:25;2.30;;;1.08;;
23712;SDS011;12035;49.978;8.298;2024-02-26T02:17:23;2.30;;;1.00;;
23712;SDS011;12035;49.978;8.298;2024-02-26T02:22:22;2.63;;;1.10;;
23712;SDS011;12035;49.978;8.298;2024-02-26T02:27:19;2.17;;;1.00;;
23712;SDS011;12035;49.978;8.298;2024-02-26T02:32:16;2.50;;;1.13;;
23712;SDS011;12035;49.978;8.298;2024-02-26T02:37:14;1.70;;;1.00;;
23712;SDS011;12035;49.978;8.298;2024-02-26T02:42:13;2.10;;;1.10;;
23712;SDS011;12035;49.978;8.298;2024-02-26T02:47:11;1.98;;;1.17;;
23712;SDS011;12035;49.978;8.298;2024-02-26T02:52:08;4.97;;;1.27;;
23712;SDS011;12035;49.978;8.298;2024-02-26T02:57:06;4.68;;;1.05;;
23712;SDS011;12035;49.978;8.298;2024-02-26T03:02:05;2.75;;;1.00;;
23712;SDS011;12035;49.978;8.298;2024-02-26T03:07:02;5.07;;;1.23;;
23712;SDS011;12035;49.978;8.298;2024-02-26T03:11:59;3.35;;;1.00;;
23712;SDS011;12035;49.978;8.298;2024-02-26T03:16:56;4.15;;;1.10;;
23712;SDS011;12035;49.978;8.298;2024-02-26T03:21:54;3.22;;;1.10;;
23712;SDS011;12035;49.978;8.298;2024-02-26T03:26:51;4.60;;;1.00;;
23712;SDS011;12035;49.978;8.298;2024-02-26T03:31:48;3.28;;;1.15;;
23712;SDS011;12035;49.978;8.298;2024-02-26T03:36:48;4.82;;;1.20;;
23712;SDS011;12035;49.978;8.298;2024-02-26T03:41:46;3.97;;;1.10;;
23712;SDS011;12035;49.978;8.298;2024-02-26T03:46:43;4.10;;;1.10;;
23712;SDS011;12035;49.978;8.298;2024-02-26T03:51:40;2.20;;;0.88;;
23712;SDS011;12035;49.978;8.298;2024-02-26T03:56:37;2.15;;;0.88;;
23712;SDS011;12035;49.978;8.298;2024-02-26T04:01:36;2.63;;;1.15;;
23712;SDS011;12035;49.978;8.298;2024-02-26T04:06:33;2.50;;;1.10;;
23712;SDS011;12035;49.978;8.298;2024-02-26T04:11:30;2.58;;;1.13;;
23712;SDS011;12035;49.978;8.298;2024-02-26T04:16:28;2.33;;;1.30;;
23712;SDS011;12035;49.978;8.298;2024-02-26T04:21:26;3.13;;;1.40;;
23712;SDS011;12035;49.978;8.298;2024-02-26T04:26:24;2.55;;;1.20;;
23712;SDS011;12035;49.978;8.298;2024-02-26T04:31:21;2.20;;;1.13;;
23712;SDS011;12035;49.978;8.298;2024-02-26T04:36:18;2.88;;;1.25;;
23712;SDS011;12035;49.978;8.298;2024-02-26T04:41:16;2.75;;;1.40;;
23712;SDS011;12035;49.978;8.298;2024-02-26T04:46:13;5.78;;;1.42;;
23712;SDS011;12035;49.978;8.298;2024-02-26T04:51:11;3.15;;;1.40;;
23712;SDS011;12035;49.978;8.298;2024-02-26T04:56:08;2.72;;;1.30;;
23712;SDS011;12035;49.978;8.298;2024-02-26T05:01:06;3.30;;;1.50;;
23712;SDS011;12035;49.978;8.298;2024-02-26T05:06:05;2.80;;;1.25;;
23712;SDS011;12035;49.978;8.298;2024-02-26T05:11:02;3.00;;;1.25;;
23712;SDS011;12035;49.978;8.298;2024-02-26T05:16:00;4.68;;;1.70;;
23712;SDS011;12035;49.978;8.298;2024-02-26T05:20:58;4.03;;;1.33;;
23712;SDS011;12035;49.978;8.298;2024-02-26T05:25:55;2.83;;;1.60;;
23712;SDS011;12035;49.978;8.298;2024-02-26T05:30:52;4.32;;;1.83;;
23712;SDS011;12035;49.978;8.298;2024-02-26T05:35:49;4.15;;;1.75;;
23712;SDS011;12035;49.978;8.298;2024-02-26T05:40:48;4.30;;;1.67;;
23712;SDS011;12035;49.978;8.298;2024-02-26T05:45:47;3.28;;;1.40;;
23712;SDS011;12035;49.978;8.298;2024-02-26T05:50:44;3.05;;;1.48;;
23712;SDS011;12035;49.978;8.298;2024-02-26T05:55:41;3.72;;;1.80;;
23712;SDS011;12035;49.978;8.298;2024-02-26T06:00:40;4.97;;;1.85;;
23712;SDS011;12035;49.978;8.298;2024-02-26T06:05:37;4.25;;;1.70;;
23712;SDS011;12035;49.978;8.298;2024-02-26T06:10:34;4.63;;;2.00;;
23712;SDS011;12035;49.978;8.298;2024-02-26T06:15:31;4.38;;;1.67;;
23712;SDS011;12035;49.978;8.298;2024-02-26T06:20:29;5.68;;;2.13;;
23712;SDS011;12035;49.978;8.298;2024-02-26T06:25:27;4.25;;;1.55;;
23712;SDS011;12035;49.978;8.298;2024-02-26T06:30:24;3.20;;;1.63;;
23712;SDS011;12035;49.978;8.298;2024-02-26T06:35:21;4.35;;;2.05;;
23712;SDS011;12035;49.978;8.298;2024-02-26T06:40:19;6.45;;;2.10;;
23712;SDS011;12035;49.978;8.298;2024-02-26T06:45:16;7.70;;;2.00;;
23712;SDS011;12035;49.978;8.298;2024-02-26T06:50:14;7.20;;;2.13;;
23712;SDS011;12035;49.978;8.298;2024-02-26T06:55:11;5.63;;;2.40;;
23712;SDS011;12035;49.978;8.298;2024-02-26T07:00:10;9.60;;;2.50;;
23712;SDS011;12035;49.978;8.298;2024-02-26T07:05:11;5.18;;;2.28;;
23712;SDS011;12035;49.978;8.298;2024-02-26T07:10:08;7.38;;;2.80;;
23712;SDS011;12035;49.978;8.298;2024-02-26T07:15:07;6.00;;;2.65;;
23712;SDS011;12035;49.978;8.298;2024-02-26T07:20:07;5.82;;;2.50;;
23712;SDS011;12035;49.978;8.298;2024-02-26T07:25:06;5.03;;;2.70;;
23712;SDS011;12035;49.978;8.298;2024-02-26T07:30:04;6.15;;;2.97;;
23712;SDS011;12035;49.978;8.298;2024-02-26T07:35:04;4.65;;;3.00;;
23712;SDS011;12035;49.978;8.298;2024-02-26T07:40:02;5.18;;;2.80;;
23712;SDS011;12035;49.978;8.298;2024-02-26T07:45:01;6.85;;;2.78;;
23712;SDS011;12035;49.978;8.298;2024-02-26T07:49:59;5.82;;;3.00;;
23712;SDS011;12035;49.978;8.298;2024-02-26T07:54:57;4.95;;;2.80;;
23712;SDS011;12035;49.978;8.298;2024-02-26T07:59:54;5.28;;;3.00;;
23712;SDS011;12035;49.978;8.298;2024-02-26T08:04:51;5.72;;;2.80;;
23712;SDS011;12035;49.978;8.298;2024-02-26T08:09:48;5.15;;;2.92;;
23712;SDS011;12035;49.978;8.298;2024-02-26T08:14:46;5.22;;;2.92;;
23712;SDS011;12035;49.978;8.298;2024-02-26T08:19:43;4.72;;;2.67;;
23712;SDS011;12035;49.978;8.298;2024-02-26T08:24:40;4.60;;;2.47;;
23712;SDS011;12035;49.978;8.298;2024-02-26T08:29:37;3.92;;;2.40;;
23712;SDS011;12035;49.978;8.298;2024-02-26T08:34:35;6.20;;;2.90;;
23712;SDS011;12035;49.978;8.298;2024-02-26T08:39:32;6.38;;;3.05;;
23712;SDS011;12035;49.978;8.298;2024-02-26T08:44:29;6.03;;;3.13;;
23712;SDS011;12035;49.978;8.298;2024-02-26T08:49:26;5.57;;;2.83;;
23712;SDS011;12035;49.978;8.298;2024-02-26T08:54:25;4.85;;;3.00;;
23712;SDS011;12035;49.978;8.298;2024-02-26T08:59:22;5.32;;;3.15;;
23712;SDS011;12035;49.978;8.298;2024-02-26T09:04:19;4.95;;;3.08;;
23712;SDS011;12035;49.978;8.298;2024-02-26T09:09:16;5.75;;;3.05;;
23712;SDS011;12035;49.978;8.298;2024-02-26T09:14:14;7.88;;;3.30;;
23712;SDS011;12035;49.978;8.298;2024-02-26T09:19:12;6.68;;;3.08;;
23712;SDS011;12035;49.978;8.298;2024-02-26T09:24:09;6.60;;;3.45;;
23712;SDS011;12035;49.978;8.298;2024-02-26T09:29:06;6.82;;;3.30;;
23712;SDS011;12035;49.978;8.298;2024-02-26T09:34:04;6.10;;;3.50;;
23712;SDS011;12035;49.978;8.298;2024-02-26T09:39:02;6.72;;;3.33;;
23712;SDS011;12035;49.978;8.298;2024-02-26T09:43:59;6.85;;;3.60;;
23712;SDS011;12035;49.978;8.298;2024-02-26T09:49:00;7.55;;;3.42;;
23712;SDS011;12035;49.978;8.298;2024-02-26T09:53:59;6.63;;;3.63;;
23712;SDS011;12035;49.978;8.298;2024-02-26T09:58:57;7.53;;;4.35;;
23712;SDS011;12035;49.978;8.298;2024-02-26T10:03:55;7.18;;;3.65;;
23712;SDS011;12035;49.978;8.298;2024-02-26T10:08:55;6.18;;;3.60;;
23712;SDS011;12035;49.978;8.298;2024-02-26T10:13:55;7.03;;;4.03;;
23712;SDS011;12035;49.978;8.298;2024-02-26T10:18:52;7.80;;;4.07;;
23712;SDS011;12035;49.978;8.298;2024-02-26T10:23:49;6.57;;;4.40;;
23712;SDS011;12035;49.978;8.298;2024-02-26T10:28:46;7.55;;;4.00;;
23712;SDS011;12035;49.978;8.298;2024-02-26T10:33:45;6.20;;;3.58;;
23712;SDS011;12035;49.978;8.298;2024-02-26T10:38:42;6.03;;;3.55;;
23712;SDS011;12035;49.978;8.298;2024-02-26T10:43:39;6.20;;;3.97;;
23712;SDS011;12035;49.978;8.298;2024-02-26T10:48:36;7.50;;;4.18;;
23712;SDS011;12035;49.978;8.298;2024-02-26T10:53:34;6.13;;;3.95;;
23712;SDS011;12035;49.978;8.298;2024-02-26T10:58:32;8.00;;;4.38;;
23712;SDS011;12035;49.978;8.298;2024-02-26T11:03:31;6.88;;;4.30;;
23712;SDS011;12035;49.978;8.298;2024-02-26T11:08:30;8.02;;;4.72;;
23712;SDS011;12035;49.978;8.298;2024-02-26T11:13:30;9.10;;;4.60;;
23712;SDS011;12035;49.978;8.298;2024-02-26T11:18:27;8.82;;;4.22;;
23712;SDS011;12035;49.978;8.298;2024-02-26T11:23:26;8.50;;;4.10;;
23712;SDS011;12035;49.978;8.298;2024-02-26T11:28:23;9.80;;;4.90;;
23712;SDS011;12035;49.978;8.298;2024-02-26T11:33:23;7.15;;;4.45;;
23712;SDS011;12035;49.978;8.298;2024-02-26T11:38:21;8.15;;;4.35;;
23712;SDS011;12035;49.978;8.298;2024-02-26T11:43:23;10.60;;;5.00;;
23712;SDS011;12035;49.978;8.298;2024-02-26T11:48:48;7.10;;;4.00;;
23712;SDS011;12035;49.978;8.298;2024-02-26T11:53:45;8.50;;;4.30;;
23712;SDS011;12035;49.978;8.298;2024-02-26T11:58:43;8.77;;;4.70;;
23712;SDS011;12035;49.978;8.298;2024-02-26T12:03:41;5.57;;;3.58;;
23712;SDS011;12035;49.978;8.298;2024-02-26T12:08:39;6.18;;;3.83;;
23712;SDS011;12035;49.978;8.298;2024-02-26T12:13:36;6.72;;;3.70;;
23712;SDS011;12035;49.978;8.298;2024-02-26T12:18:33;8.30;;;4.50;;
23712;SDS011;12035;49.978;8.298;2024-02-26T12:23:31;7.90;;;4.55;;
23712;SDS011;12035;49.978;8.298;2024-02-26T12:28:29;7.47;;;3.78;;
23712;SDS011;12035;49.978;8.298;2024-02-26T12:33:26;6.60;;;4.00;;
23712;SDS011;12035;49.978;8.298;2024-02-26T12:38:24;7.75;;;3.75;;
23712;SDS011;12035;49.978;8.298;2024-02-26T12:43:22;7.15;;;4.25;;
23712;SDS011;12035;49.978;8.298;2024-02-26T12:48:21;7.60;;;4.22;;
23712;SDS011;12035;49.978;8.298;2024-02-26T12:53:18;6.35;;;3.70;;
23712;SDS011;12035;49.978;8.298;2024-02-26T12:58:15;8.88;;;4.20;;
23712;SDS011;12035;49.978;8.298;2024-02-26T13:03:14;8.45;;;4.30;;
23712;SDS011;12035;49.978;8.298;2024-02-26T13:08:18;7.70;;;4.05;;
23712;SDS011;12035;49.978;8.298;2024-02-26T13:13:15;6.30;;;3.75;;
23712;SDS011;12035;49.978;8.298;2024-02-26T13:18:14;8.02;;;3.63;;
23712;SDS011;12035;49.978;8.298;2024-02-26T13:23:11;7.97;;;3.63;;
23712;SDS011;12035;49.978;8.298;2024-02-26T13:28:12;6.75;;;3.63;;
23712;SDS011;12035;49.978;8.298;2024-02-26T13:33:12;6.72;;;3.60;;
23712;SDS011;12035;49.978;8.298;2024-02-26T13:38:09;5.72;;;3.33;;
23712;SDS011;12035;49.978;8.298;2024-02-26T13:43:07;6.28;;;4.03;;
23712;SDS011;12035;49.978;8.298;2024-02-26T13:48:06;6.10;;;3.40;;
23712;SDS011;12035;49.978;8.298;2024-02-26T13:53:06;5.63;;;3.50;;
23712;SDS011;12035;49.978;8.298;2024-02-26T13:58:03;5.90;;;3.20;;
23712;SDS011;12035;49.978;8.298;2024-02-26T14:03:01;5.30;;;3.22;;
23712;SDS011;12035;49.978;8.298;2024-02-26T14:08:00;6.63;;;3.40;;
23712;SDS011;12035;49.978;8.298;2024-02-26T14:12:57;6.43;;;3.72;;
23712;SDS011;12035;49.978;8.298;2024-02-26T14:17:55;4.45;;;2.88;;
23712;SDS011;12035;49.978;8.298;2024-02-26T14:22:52;5.90;;;3.08;;
23712;SDS011;12035;49.978;8.298;2024-02-26T14:27:50;6.75;;;3.28;;
23712;SDS011;12035;49.978;8.298;2024-02-26T14:32:47;6.40;;;3.50;;
23712;SDS011;12035;49.978;8.298;2024-02-26T14:37:45;7.05;;;3.40;;
23712;SDS011;12035;49.978;8.298;2024-02-26T14:42:43;7.25;;;3.30;;
23712;SDS011;12035;49.978;8.298;2024-02-26T14:47:42;6.72;;;3.95;;
23712;SDS011;12035;49.978;8.298;2024-02-26T14:52:39;5.72;;;3.17;;
23712;SDS011;12035;49.978;8.298;2024-02-26T14:57:36;5.00;;;2.88;;
23712;SDS011;12035;49.978;8.298;2024-02-26T15:02:33;4.75;;;3.10;;
23712;SDS011;12035;49.978;8.298;2024-02-26T15:07:31;6.03;;;3.20;;
23712;SDS011;12035;49.978;8.298;2024-02-26T15:12:28;6.07;;;3.13;;
23712;SDS011;12035;49.978;8.298;2024-02-26T15:17:25;5.03;;;2.78;;
23712;SDS011;12035;49.978;8.298;2024-02-26T15:22:23;4.95;;;2.72;;
23712;SDS011;12035;49.978;8.298;2024-02-26T15:27:23;5.05;;;2.70;;
23712;SDS011;12035;49.978;8.298;2024-02-26T15:32:20;6.10;;;3.40;;
23712;SDS011;12035;49.978;8.298;2024-02-26T15:37:17;6.90;;;2.90;;
23712;SDS011;12035;49.978;8.298;2024-02-26T15:42:14;5.68;;;3.08;;
23712;SDS011;12035;49.978;8.298;2024-02-26T15:47:12;7.53;;;3.22;;
23712;SDS011;12035;49.978;8.298;2024-02-26T15:52:09;7.03;;;3.15;;
23712;SDS011;12035;49.978;8.298;2024-02-26T15:57:06;6.25;;;3.47;;
23712;SDS011;12035;49.978;8.298;2024-02-26T16:02:04;6.03;;;3.08;;
23712;SDS011;12035;49.978;8.298;2024-02-26T16:07:03;5.63;;;3.22;;
23712;SDS011;12035;49.978;8.298;2024-02-26T16:12:08;5.40;;;3.15;;
23712;SDS011;12035;49.978;8.298;2024-02-26T16:17:14;5.93;;;2.53;;
23712;SDS011;12035;49.978;8.298;2024-02-26T16:22:16;4.95;;;2.88;;
23712;SDS011;12035;49.978;8.298;2024-02-26T16:27:13;5.05;;;2.80;;
23712;SDS011;12035;49.978;8.298;2024-02-26T16:32:10;6.00;;;2.78;;
23712;SDS011;12035;49.978;8.298;2024-02-26T16:37:08;4.70;;;2.53;;
23712;SDS011;12035;49.978;8.298;2024-02-26T16:42:08;5.47;;;2.97;;
23712;SDS011;12035;49.978;8.298;2024-02-26T16:47:07;4.63;;;2.63;;
23712;SDS011;12035;49.978;8.298;2024-02-26T16:52:04;4.82;;;2.60;;
23712;SDS011;12035;49.978;8.298;2024-02-26T16:57:02;6.35;;;3.20;;
23712;SDS011;12035;49.978;8.298;2024-02-26T17:02:00;4.75;;;2.75;;
23712;SDS011;12035;49.978;8.298;2024-02-26T17:06:59;5.10;;;2.35;;
23712;SDS011;12035;49.978;8.298;2024-02-26T17:11:56;6.00;;;2.00;;
23712;SDS011;12035;49.978;8.298;2024-02-26T17:16:53;3.45;;;1.90;;
23712;SDS011;12035;49.978;8.298;2024-02-26T17:21:52;4.20;;;2.20;;
23712;SDS011;12035;49.978;8.298;2024-02-26T17:26:49;4.28;;;2.20;;
23712;SDS011;12035;49.978;8.298;2024-02-26T17:31:46;3.80;;;2.20;;
23712;SDS011;12035;49.978;8.298;2024-02-26T17:36:43;3.97;;;2.15;;
23712;SDS011;12035;49.978;8.298;2024-02-26T17:41:42;3.05;;;1.65;;
23712;SDS011;12035;49.978;8.298;2024-02-26T17:46:39;2.90;;;1.80;;
23712;SDS011;12035;49.978;8.298;2024-02-26T17:51:36;4.85;;;2.35;;
23712;SDS011;12035;49.978;8.298;2024-02-26T17:56:33;6.38;;;2.17;;
23712;SDS011;12035;49.978;8.298;2024-02-26T18:01:32;4.20;;;2.30;;
23712;SDS011;12035;49.978;8.298;2024-02-26T18:06:29;4.65;;;2.35;;
23712;SDS011;12035;49.978;8.298;2024-02-26T18:11:26;3.30;;;1.98;;
23712;SDS011;12035;49.978;8.298;2024-02-26T18:16:23;5.45;;;2.67;;
23712;SDS011;12035;49.978;8.298;2024-02-26T18:21:22;5.95;;;2.08;;
23712;SDS011;12035;49.978;8.298;2024-02-26T18:26:20;3.58;;;1.98;;
23712;SDS011;12035;49.978;8.298;2024-02-26T18:31:18;3.75;;;1.80;;
23712;SDS011;12035;49.978;8.298;2024-02-26T18:36:15;4.22;;;2.03;;
23712;SDS011;12035;49.978;8.298;2024-02-26T18:41:19;3.88;;;1.92;;
23712;SDS011;12035;49.978;8.298;2024-02-26T18:46:17;3.60;;;1.70;;
23712;SDS011;12035;49.978;8.298;2024-02-26T18:51:15;2.85;;;1.60;;
23712;SDS011;12035;49.978;8.298;2024-02-26T18:56:12;3.47;;;1.73;;
23712;SDS011;12035;49.978;8.298;2024-02-26T19:01:11;2.92;;;1.70;;
23712;SDS011;12035;49.978;8.298;2024-02-26T19:06:08;3.40;;;1.67;;
23712;SDS011;12035;49.978;8.298;2024-02-26T19:11:05;2.85;;;1.73;;
23712;SDS011;12035;49.978;8.298;2024-02-26T19:16:03;3.03;;;1.70;;
23712;SDS011;12035;49.978;8.298;2024-02-26T19:21:02;4.78;;;2.22;;
23712;SDS011;12035;49.978;8.298;2024-02-26T19:26:00;3.75;;;2.03;;
23712;SDS011;12035;49.978;8.298;2024-02-26T19:30:59;5.90;;;2.15;;
23712;SDS011;12035;49.978;8.298;2024-02-26T19:35:56;4.10;;;2.58;;
23712;SDS011;12035;49.978;8.298;2024-02-26T19:40:55;5.45;;;2.45;;
23712;SDS011;12035;49.978;8.298;2024-02-26T19:45:52;8.05;;;2.90;;
23712;SDS011;12035;49.978;8.298;2024-02-26T19:50:50;7.43;;;3.13;;
23712;SDS011;12035;49.978;8.298;2024-02-26T19:55:49;4.35;;;2.40;;
23712;SDS011;12035;49.978;8.298;2024-02-26T20:00:48;4.97;;;1.98;;
23712;SDS011;12035;49.978;8.298;2024-02-26T20:05:45;5.65;;;2.40;;
23712;SDS011;12035;49.978;8.298;2024-02-26T20:10:42;4.78;;;2.50;;
23712;SDS011;12035;49.978;8.298;2024-02-26T20:15:45;4.78;;;2.42;;
23712;SDS011;12035;49.978;8.298;2024-02-26T20:20:43;5.03;;;2.42;;
23712;SDS011;12035;49.978;8.298;2024-02-26T20:25:40;3.35;;;1.85;;
23712;SDS011;12035;49.978;8.298;2024-02-26T20:30:38;4.28;;;2.20;;
23712;SDS011;12035;49.978;8.298;2024-02-26T20:35:35;4.00;;;2.22;;
23712;SDS011;12035;49.978;8.298;2024-02-26T20:40:33;5.00;;;2.78;;
23712;SDS011;12035;49.978;8.298;2024-02-26T20:45:30;4.28;;;2.13;;
23712;SDS011;12035;49.978;8.298;2024-02-26T20:50:28;3.42;;;2.20;;
23712;SDS011;12035;49.978;8.298;2024-02-26T20:55:25;4.72;;;2.72;;
23712;SDS011;12035;49.978;8.298;2024-02-26T21:00:23;6.38;;;2.90;;
23712;SDS011;12035;49.978;8.298;2024-02-26T21:05:21;5.00;;;2.80;;
23712;SDS011;12035;49.978;8.298;2024-02-26T21:10:18;4.50;;;2.72;;
23712;SDS011;12035;49.978;8.298;2024-02-26T21:15:18;7.15;;;3.20;;
23712;SDS011;12035;49.978;8.298;2024-02-26T21:20:18;5.13;;;2.72;;
23712;SDS011;12035;49.978;8.298;2024-02-26T21:25:15;6.10;;;2.85;;
23712;SDS011;12035;49.978;8.298;2024-02-26T21:30:13;4.90;;;2.55;;
23712;SDS011;12035;49.978;8.298;2024-02-26T21:35:11;4.32;;;2.67;;
23712;SDS011;12035;49.978;8.298;2024-02-26T21:40:10;6.00;;;2.58;;
23712;SDS011;12035;49.978;8.298;2024-02-26T21:45:08;4.22;;;2.53;;
23712;SDS011;12035;49.978;8.298;2024-02-26T21:50:06;4.30;;;2.50;;
23712;SDS011;12035;49.978;8.298;2024-02-26T21:55:05;4.40;;;2.70;;
23712;SDS011;12035;49.978;8.298;2024-02-26T22:00:05;5.68;;;2.70;;
23712;SDS011;12035;49.978;8.298;2024-02-26T22:05:04;7.22;;;3.50;;
23712;SDS011;12035;49.978;8.298;2024-02-26T22:10:03;7.50;;;3.17;;
23712;SDS011;12035;49.978;8.298;2024-02-26T22:15:01;5.90;;;3.08;;
23712;SDS011;12035;49.978;8.298;2024-02-26T22:20:01;6.22;;;3.75;;
23712;SDS011;12035;49.978;8.298;2024-02-26T22:25:01;5.82;;;3.22;;
23712;SDS011;12035;49.978;8.298;2024-02-26T22:29:59;7.07;;;3.58;;
23712;SDS011;12035;49.978;8.298;2024-02-26T22:34:57;7.22;;;4.50;;
23712;SDS011;12035;49.978;8.298;2024-02-26T22:39:55;7.28;;;4.32;;
23712;SDS011;12035;49.978;8.298;2024-02-26T22:44:52;7.45;;;5.10;;
23712;SDS011;12035;49.978;8.298;2024-02-26T22:49:49;7.72;;;5.30;;
23712;SDS011;12035;49.978;8.298;2024-02-26T22:54:46;10.90;;;6.03;;
23712;SDS011;12035;49.978;8.298;2024-02-26T22:59:45;9.68;;;6.18;;
23712;SDS011;12035;49.978;8.298;2024-02-26T23:04:42;11.63;;;7.20;;
23712;SDS011;12035;49.978;8.298;2024-02-26T23:09:39;13.77;;;7.35;;
23712;SDS011;12035;49.978;8.298;2024-02-26T23:14:36;10.48;;;7.38;;
23712;SDS011;12035;49.978;8.298;2024-02-26T23:19:34;13.38;;;8.20;;
23712;SDS011;12035;49.978;8.298;2024-02-26T23:24:32;9.45;;;6.45;;
23712;SDS011;12035;49.978;8.298;2024-02-26T23:29:29;10.52;;;7.10;;
23712;SDS011;12035;49.978;8.298;2024-02-26T23:34:26;11.52;;;7.05;;
23712;SDS011;12035;49.978;8.298;2024-02-26T23:39:24;12.77;;;8.02;;
23712;SDS011;12035;49.978;8.298;2024-02-26T23:44:21;12.60;;;8.23;;
23712;SDS011;12035;49.978;8.298;2024-02-26T23:49:18;13.57;;;8.30;;
23712;SDS011;12035;49.978;8.298;2024-02-26T23:54:15;13.95;;;8.50;;
23712;SDS011;12035;49.978;8.298;2024-02-26T23:59:14;13.43;;;7.95;;
